createdAt,value
2023-02-18T00:00:11.612Z,48.27
2023-02-18T00:02:57.051Z,50.97
2023-02-18T00:05:42.509Z,47.77
2023-02-18T00:08:28.519Z,43.13
2023-02-18T00:11:15.744Z,50.67
2023-02-18T00:14:03.810Z,48.67
2023-02-18T00:16:50.311Z,44.10
2023-02-18T00:19:35.407Z,47.77
2023-02-18T00:22:20.886Z,51.10
2023-02-18T00:25:06.363Z,46.13
2023-02-18T00:27:51.628Z,46.33
2023-02-18T00:30:40.839Z,48.93
2023-02-18T00:33:26.754Z,51.53
2023-02-18T00:36:14.564Z,50.10
2023-02-18T00:39:01.955Z,51.60
2023-02-18T00:41:47.391Z,53.90
2023-02-18T00:44:32.564Z,57.93
2023-02-18T00:47:18.187Z,54.10
2023-02-18T00:50:03.511Z,55.33
2023-02-18T00:52:48.967Z,48.83
2023-02-18T00:55:41.698Z,56.13
2023-02-18T00:58:27.463Z,51.17
2023-02-18T01:01:12.811Z,55.13
2023-02-18T01:03:58.538Z,57.87
2023-02-18T01:06:43.469Z,57.63
2023-02-18T01:09:28.824Z,58.67
2023-02-18T01:12:14.541Z,55.97
2023-02-18T01:14:59.428Z,61.27
2023-02-18T01:17:44.487Z,59.17
2023-02-18T01:20:29.536Z,64.03
2023-02-18T01:23:15.126Z,62.23
2023-02-18T01:26:00.153Z,62.03
2023-02-18T01:28:45.379Z,64.67
2023-02-18T01:31:31.049Z,59.97
2023-02-18T01:34:16.094Z,55.93
2023-02-18T01:37:00.905Z,64.20
2023-02-18T01:39:45.851Z,66.60
2023-02-18T01:42:30.848Z,64.77
2023-02-18T01:45:34.555Z,64.63
2023-02-18T01:48:40.360Z,66.33
2023-02-18T01:51:49.965Z,70.37
2023-02-18T01:54:39.446Z,62.80
2023-02-18T01:57:29.833Z,64.07
2023-02-18T02:00:18.091Z,68.80
2023-02-18T02:03:02.987Z,63.43
2023-02-18T02:05:48.055Z,65.43
2023-02-18T02:08:33.328Z,70.27
2023-02-18T02:11:45.049Z,63.30
2023-02-18T02:14:51.938Z,63.20
2023-02-18T02:18:02.811Z,64.07
2023-02-18T02:21:00.355Z,72.63
2023-02-18T02:24:04.377Z,67.60
2023-02-18T02:26:59.039Z,68.03
2023-02-18T02:30:10.251Z,67.93
2023-02-18T02:33:13.316Z,67.03
2023-02-18T02:36:06.010Z,79.13
2023-02-18T02:39:20.030Z,73.20
2023-02-18T02:42:20.745Z,72.40
2023-02-18T02:46:11.385Z,76.37
2023-02-18T02:49:51.181Z,71.33
2023-02-18T02:52:47.726Z,69.87
2023-02-18T02:55:32.714Z,76.53
2023-02-18T02:58:19.081Z,69.67
2023-02-18T03:01:14.435Z,74.83
2023-02-18T03:04:13.373Z,71.47
2023-02-18T03:07:25.510Z,69.47
2023-02-18T03:10:22.939Z,72.20
2023-02-18T03:13:26.302Z,81.13
2023-02-18T03:16:27.149Z,80.00
2023-02-18T03:19:52.680Z,83.03
2023-02-18T03:22:44.038Z,91.97
2023-02-18T03:25:32.092Z,92.03
2023-02-18T03:28:23.142Z,87.67
2023-02-18T03:31:16.469Z,101.80
2023-02-18T03:34:16.116Z,98.40
2023-02-18T03:37:02.437Z,86.77
2023-02-18T03:39:52.472Z,82.43
2023-02-18T03:42:37.660Z,83.83
2023-02-18T03:45:22.807Z,85.83
2023-02-18T03:48:08.091Z,77.17
2023-02-18T03:50:53.025Z,77.90
2023-02-18T03:53:37.875Z,82.77
2023-02-18T03:56:22.871Z,88.87
2023-02-18T03:59:08.361Z,91.87
2023-02-18T04:01:53.584Z,93.13
2023-02-18T04:04:39.332Z,89.57
2023-02-18T04:07:24.560Z,100.87
2023-02-18T04:10:10.454Z,107.03
2023-02-18T04:12:55.798Z,103.90
2023-02-18T04:15:40.897Z,110.80
2023-02-18T04:18:26.133Z,115.67
2023-02-18T04:21:11.638Z,115.23
2023-02-18T04:23:57.134Z,122.17
2023-02-18T04:26:42.549Z,115.57
2023-02-18T04:29:28.128Z,111.93
2023-02-18T04:32:13.571Z,108.53
2023-02-18T04:34:58.924Z,104.13
2023-02-18T04:37:44.140Z,108.67
2023-02-18T04:40:29.741Z,86.43
2023-02-18T04:43:15.451Z,93.67
2023-02-18T04:46:00.618Z,87.43
2023-02-18T04:48:45.902Z,93.93
2023-02-18T04:51:31.373Z,75.57
2023-02-18T04:54:16.312Z,73.73
2023-02-18T04:57:01.879Z,74.67
2023-02-18T04:59:46.715Z,79.63
2023-02-18T05:02:33.152Z,84.10
2023-02-18T05:05:18.629Z,84.80
2023-02-18T05:08:04.070Z,88.63
2023-02-18T05:10:49.359Z,82.37
2023-02-18T05:13:35.175Z,82.80
2023-02-18T05:16:20.670Z,83.10
2023-02-18T05:19:06.286Z,74.13
2023-02-18T05:21:51.471Z,74.43
2023-02-18T05:24:36.917Z,74.60
2023-02-18T05:27:22.242Z,68.00
2023-02-18T05:30:08.363Z,66.53
2023-02-18T05:32:53.341Z,65.37
2023-02-18T05:35:38.780Z,59.20
2023-02-18T05:38:24.431Z,58.97
2023-02-18T05:41:09.657Z,69.87
2023-02-18T05:43:54.971Z,58.03
2023-02-18T05:46:40.317Z,59.53
2023-02-18T05:49:26.045Z,57.30
2023-02-18T05:52:12.098Z,56.37
2023-02-18T05:54:57.196Z,51.77
2023-02-18T05:57:42.663Z,53.90
2023-02-18T06:00:27.931Z,52.03
2023-02-18T06:03:13.345Z,57.33
2023-02-18T06:05:58.282Z,55.67
2023-02-18T06:08:43.535Z,54.53
2023-02-18T06:11:29.034Z,50.57
2023-02-18T06:14:14.322Z,48.93
2023-02-18T06:16:59.688Z,46.73
2023-02-18T06:19:45.685Z,42.37
2023-02-18T06:22:30.910Z,41.23
2023-02-18T06:25:16.817Z,36.80
2023-02-18T06:28:01.653Z,35.20
2023-02-18T06:30:46.617Z,37.90
2023-02-18T06:33:31.977Z,35.70
2023-02-18T06:36:16.836Z,32.93
2023-02-18T06:39:04.729Z,34.47
2023-02-18T06:41:49.860Z,32.17
2023-02-18T06:44:37.584Z,23.33
2023-02-18T06:47:23.236Z,23.93
2023-02-18T06:50:08.898Z,24.30
2023-02-18T06:52:54.261Z,27.97
2023-02-18T06:55:39.590Z,21.90
2023-02-18T06:58:25.143Z,22.93
2023-02-18T07:01:10.652Z,22.60
2023-02-18T07:03:56.069Z,24.20
2023-02-18T07:06:41.628Z,21.53
2023-02-18T07:09:26.820Z,21.50
2023-02-18T07:12:12.307Z,19.47
2023-02-18T07:14:57.540Z,18.93
2023-02-18T07:17:43.110Z,18.77
2023-02-18T07:20:28.852Z,17.50
2023-02-18T07:23:13.898Z,17.77
2023-02-18T07:26:08.291Z,16.60
2023-02-18T07:28:53.824Z,15.37
2023-02-18T07:31:39.350Z,14.87
2023-02-18T07:34:24.777Z,15.47
2023-02-18T07:37:10.232Z,15.33
2023-02-18T07:39:55.507Z,15.20
2023-02-18T07:42:41.195Z,15.70
2023-02-18T07:45:26.497Z,18.13
2023-02-18T07:48:12.175Z,18.23
2023-02-18T07:50:57.564Z,18.47
2023-02-18T07:53:43.168Z,21.50
2023-02-18T07:56:28.390Z,19.80
2023-02-18T07:59:14.455Z,20.97
2023-02-18T08:01:59.735Z,18.77
2023-02-18T08:04:45.022Z,19.37
2023-02-18T08:07:30.261Z,19.80
2023-02-18T08:10:15.714Z,18.87
2023-02-18T08:13:00.871Z,21.47
2023-02-18T08:15:46.471Z,19.63
2023-02-18T08:18:32.223Z,18.67
2023-02-18T08:21:19.340Z,20.90
2023-02-18T08:24:04.549Z,18.20
2023-02-18T08:27:00.322Z,18.23
2023-02-18T08:29:46.108Z,17.33
2023-02-18T08:32:31.537Z,18.87
2023-02-18T08:35:16.811Z,17.97
2023-02-18T08:38:01.929Z,16.93
2023-02-18T08:40:47.705Z,17.40
2023-02-18T08:43:33.106Z,17.03
2023-02-18T08:46:33.289Z,18.27
2023-02-18T08:49:20.484Z,17.10
2023-02-18T08:52:05.768Z,16.67
2023-02-18T08:54:51.439Z,20.47
2023-02-18T08:57:36.637Z,17.37
2023-02-18T09:00:21.853Z,16.97
2023-02-18T09:03:07.379Z,17.83
2023-02-18T09:05:52.688Z,15.97
2023-02-18T09:08:38.013Z,16.23
2023-02-18T09:11:23.611Z,16.43
2023-02-18T09:14:09.305Z,16.63
2023-02-18T09:16:54.607Z,18.17
2023-02-18T09:19:39.901Z,18.40
2023-02-18T09:22:25.186Z,18.97
2023-02-18T09:25:10.807Z,17.50
2023-02-18T09:27:55.896Z,18.60
2023-02-18T09:30:41.424Z,18.57
2023-02-18T09:33:26.757Z,21.80
2023-02-18T09:36:12.576Z,23.10
2023-02-18T09:38:58.212Z,24.50
2023-02-18T09:41:54.557Z,24.53
2023-02-18T09:44:45.726Z,24.80
2023-02-18T09:47:36.983Z,21.50
2023-02-18T09:50:25.842Z,23.00
2023-02-18T09:53:12.464Z,20.20
2023-02-18T09:55:58.596Z,20.43
2023-02-18T09:58:45.876Z,22.40
2023-02-18T10:01:37.909Z,18.40
2023-02-18T10:04:27.056Z,18.67
2023-02-18T10:07:29.766Z,18.67
2023-02-18T10:10:29.158Z,19.87
2023-02-18T10:13:24.452Z,22.27
2023-02-18T10:16:14.964Z,22.83
2023-02-18T10:19:09.718Z,22.03
2023-02-18T10:21:55.804Z,21.17
2023-02-18T10:24:46.356Z,20.50
2023-02-18T10:27:38.708Z,20.60
2023-02-18T10:30:37.992Z,22.13
2023-02-18T10:33:36.954Z,20.63
2023-02-18T10:36:34.760Z,22.77
2023-02-18T10:39:48.523Z,18.27
2023-02-18T10:42:36.588Z,22.20
2023-02-18T10:45:55.540Z,20.80
2023-02-18T10:49:11.324Z,21.63
2023-02-18T10:51:58.106Z,22.50
2023-02-18T10:54:52.409Z,23.47
2023-02-18T10:57:52.341Z,26.10
2023-02-18T11:00:39.902Z,26.00
2023-02-18T11:03:38.568Z,27.73
2023-02-18T11:06:40.097Z,28.57
2023-02-18T11:09:30.264Z,30.90
2023-02-18T11:12:27.932Z,25.57
2023-02-18T11:15:19.451Z,27.53
2023-02-18T11:18:26.672Z,30.13
2023-02-18T11:21:23.794Z,28.03
2023-02-18T11:24:20.206Z,25.70
2023-02-18T11:27:12.054Z,28.07
2023-02-18T11:30:17.490Z,28.47
2023-02-18T11:33:08.992Z,29.70
2023-02-18T11:35:56.354Z,29.37
2023-02-18T11:38:49.820Z,33.57
2023-02-18T11:41:40.943Z,30.80
2023-02-18T11:44:42.014Z,28.37
2023-02-18T11:47:32.980Z,29.80
2023-02-18T11:50:22.664Z,28.10
2023-02-18T11:53:28.533Z,24.80
2023-02-18T11:56:18.481Z,23.43
2023-02-18T11:59:04.483Z,25.70
2023-02-18T12:01:54.885Z,23.30
2023-02-18T12:04:47.326Z,21.33
2023-02-18T12:07:58.641Z,22.17
2023-02-18T12:10:49.090Z,22.13
2023-02-18T12:13:56.346Z,22.97
2023-02-18T12:17:20.424Z,21.87
2023-02-18T12:20:27.674Z,22.97
2023-02-18T12:23:28.319Z,22.93
2023-02-18T12:26:32.029Z,23.17
2023-02-18T12:29:40.883Z,22.23
2023-02-18T12:32:25.780Z,21.43
2023-02-18T12:35:22.875Z,20.20
2023-02-18T12:38:11.253Z,21.10
2023-02-18T12:41:37.838Z,21.07
2023-02-18T12:44:43.504Z,21.17
2023-02-18T12:47:59.178Z,18.87
2023-02-18T12:51:16.518Z,18.63
2023-02-18T12:54:37.021Z,16.53
2023-02-18T12:57:33.452Z,18.77
2023-02-18T13:01:00.175Z,18.37
2023-02-18T13:03:51.668Z,16.73
2023-02-18T13:07:10.564Z,18.40
2023-02-18T13:10:17.201Z,17.53
2023-02-18T13:13:19.284Z,18.53
2023-02-18T13:16:09.136Z,18.73
2023-02-18T13:19:13.191Z,18.67
2023-02-18T13:22:12.241Z,20.30
2023-02-18T13:24:58.731Z,17.53
2023-02-18T13:28:06.731Z,21.13
2023-02-18T13:31:10.992Z,17.40
2023-02-18T13:34:21.881Z,18.97
2023-02-18T13:37:38.386Z,23.03
2023-02-18T13:40:27.493Z,23.63
2023-02-18T13:43:27.796Z,20.60
2023-02-18T13:46:24.354Z,21.73
2023-02-18T13:49:12.908Z,20.80
2023-02-18T13:52:01.340Z,24.73
2023-02-18T13:54:48.685Z,23.53
2023-02-18T13:57:37.327Z,27.53
2023-02-18T14:00:25.788Z,25.77
2023-02-18T14:03:21.876Z,24.57
2023-02-18T14:06:18.653Z,26.40
2023-02-18T14:09:12.997Z,25.67
2023-02-18T14:12:34.792Z,29.43
2023-02-18T14:15:19.864Z,22.83
2023-02-18T14:18:13.729Z,25.43
2023-02-18T14:21:13.895Z,24.63
2023-02-18T14:24:01.965Z,21.60
2023-02-18T14:26:49.056Z,25.33
2023-02-18T14:29:34.448Z,19.97
2023-02-18T14:32:22.063Z,22.87
2023-02-18T14:35:20.315Z,20.67
2023-02-18T14:38:05.301Z,18.67
2023-02-18T14:41:21.486Z,20.57
2023-02-18T14:44:25.665Z,20.73
2023-02-18T14:47:35.640Z,20.73
2023-02-18T14:50:22.314Z,19.37
2023-02-18T14:53:14.543Z,19.10
2023-02-18T14:56:05.450Z,20.47
2023-02-18T14:59:02.944Z,18.03
2023-02-18T15:01:48.322Z,20.67
2023-02-18T15:04:33.464Z,19.83
2023-02-18T15:07:22.678Z,16.93
2023-02-18T15:10:14.972Z,17.97
2023-02-18T15:13:02.672Z,19.90
2023-02-18T15:15:52.298Z,21.97
2023-02-18T15:18:41.954Z,20.27
2023-02-18T15:21:33.305Z,20.27
2023-02-18T15:24:30.494Z,18.47
2023-02-18T15:27:29.733Z,20.97
2023-02-18T15:30:31.107Z,19.33
2023-02-18T15:33:19.889Z,21.57
2023-02-18T15:36:11.846Z,19.77
2023-02-18T15:38:57.634Z,19.73
2023-02-18T15:41:42.990Z,20.33
2023-02-18T15:44:32.416Z,18.77
2023-02-18T15:47:18.154Z,18.90
2023-02-18T15:50:03.926Z,19.03
2023-02-18T15:52:50.606Z,17.90
2023-02-18T15:55:41.386Z,16.63
2023-02-18T15:58:30.905Z,18.90
2023-02-18T16:01:28.659Z,17.30
2023-02-18T16:04:15.211Z,15.23
2023-02-18T16:07:05.448Z,17.57
2023-02-18T16:09:51.331Z,15.33
2023-02-18T16:12:39.185Z,17.43
2023-02-18T16:15:38.033Z,20.10
2023-02-18T16:18:30.837Z,17.73
2023-02-18T16:21:19.322Z,17.77
2023-02-18T16:24:24.273Z,19.20
2023-02-18T16:27:16.151Z,21.60
2023-02-18T16:30:29.690Z,17.37
2023-02-18T16:33:15.131Z,21.20
2023-02-18T16:36:00.427Z,19.70
2023-02-18T16:38:45.622Z,19.97
2023-02-18T16:41:30.792Z,20.93
2023-02-18T16:44:16.362Z,23.37
2023-02-18T16:47:01.809Z,21.33
2023-02-18T16:49:49.654Z,24.37
2023-02-18T16:52:35.143Z,25.33
2023-02-18T16:55:22.853Z,24.03
2023-02-18T16:58:08.293Z,24.10
2023-02-18T17:00:54.288Z,26.37
2023-02-18T17:03:39.646Z,21.57
2023-02-18T17:06:25.143Z,24.40
2023-02-18T17:09:22.345Z,24.33
2023-02-18T17:12:09.297Z,23.27
2023-02-18T17:14:54.649Z,27.27
2023-02-18T17:17:40.150Z,24.87
2023-02-18T17:20:30.880Z,26.13
2023-02-18T17:23:17.930Z,26.07
2023-02-18T17:26:03.530Z,24.93
2023-02-18T17:28:48.776Z,23.97
2023-02-18T17:31:38.096Z,24.93
2023-02-18T17:34:28.720Z,26.20
2023-02-18T17:37:13.893Z,24.93
2023-02-18T17:39:59.252Z,26.40
2023-02-18T17:42:44.473Z,24.30
2023-02-18T17:45:34.455Z,23.23
2023-02-18T17:48:20.006Z,26.67
2023-02-18T17:51:05.722Z,24.87
2023-02-18T17:53:50.577Z,30.63
2023-02-18T17:56:35.999Z,24.63
2023-02-18T17:59:22.149Z,26.10
2023-02-18T18:02:26.946Z,23.30
2023-02-18T18:05:21.414Z,28.97
2023-02-18T18:08:08.064Z,26.13
2023-02-18T18:10:56.045Z,23.67
2023-02-18T18:13:41.215Z,22.53
2023-02-18T18:16:27.408Z,24.63
2023-02-18T18:19:12.345Z,24.27
2023-02-18T18:21:57.740Z,23.13
2023-02-18T18:24:42.939Z,26.47
2023-02-18T18:27:28.437Z,25.47
2023-02-18T18:30:15.172Z,22.87
2023-02-18T18:33:00.229Z,23.07
2023-02-18T18:35:47.423Z,27.37
2023-02-18T18:38:32.781Z,23.90
2023-02-18T18:41:21.049Z,24.37
2023-02-18T18:44:06.502Z,25.50
2023-02-18T18:46:51.656Z,29.10
2023-02-18T18:49:37.057Z,27.73
2023-02-18T18:52:22.396Z,28.63
2023-02-18T18:55:28.071Z,30.73
2023-02-18T18:58:13.369Z,26.47
2023-02-18T19:01:02.131Z,26.73
2023-02-18T19:03:47.516Z,28.67
2023-02-18T19:06:33.232Z,26.67
2023-02-18T19:09:18.473Z,27.97
2023-02-18T19:12:04.081Z,30.47
2023-02-18T19:14:49.718Z,28.60
2023-02-18T19:17:35.128Z,26.00
2023-02-18T19:20:23.824Z,31.30
2023-02-18T19:23:09.488Z,28.20
2023-02-18T19:25:54.826Z,22.40
2023-02-18T19:28:40.084Z,23.43
2023-02-18T19:31:26.282Z,19.80
2023-02-18T19:34:11.422Z,21.60
2023-02-18T19:36:56.939Z,18.53
2023-02-18T19:39:42.205Z,22.07
2023-02-18T19:42:27.589Z,41.63
2023-02-18T19:45:13.265Z,21.53
2023-02-18T19:47:59.488Z,19.60
2023-02-18T19:50:44.632Z,20.97
2023-02-18T19:53:30.263Z,23.47
2023-02-18T19:56:15.304Z,23.27
2023-02-18T19:59:00.986Z,21.10
2023-02-18T20:01:46.290Z,23.90
2023-02-18T20:04:31.761Z,25.73
2023-02-18T20:07:18.701Z,26.13
2023-02-18T20:10:05.998Z,26.83
2023-02-18T20:12:53.258Z,25.50
2023-02-18T20:15:39.877Z,33.77
2023-02-18T20:18:25.239Z,28.43
2023-02-18T20:21:11.502Z,31.73
2023-02-18T20:23:57.328Z,33.97
2023-02-18T20:26:43.149Z,32.67
2023-02-18T20:29:28.323Z,36.70
2023-02-18T20:32:13.722Z,34.03
2023-02-18T20:34:59.245Z,36.37
2023-02-18T20:37:44.561Z,34.20
2023-02-18T20:40:30.000Z,37.53
2023-02-18T20:43:15.918Z,42.17
2023-02-18T20:46:03.455Z,39.03
2023-02-18T20:48:48.540Z,43.43
2023-02-18T20:51:34.342Z,41.10
2023-02-18T20:54:19.854Z,41.80
2023-02-18T20:57:05.387Z,40.03
2023-02-18T20:59:50.769Z,41.03
2023-02-18T21:02:38.923Z,44.43
2023-02-18T21:05:23.842Z,45.43
2023-02-18T21:08:09.513Z,45.93
2023-02-18T21:10:56.359Z,46.40
2023-02-18T21:13:42.168Z,50.20
2023-02-18T21:16:29.219Z,44.80
2023-02-18T21:19:17.257Z,49.13
2023-02-18T21:22:02.736Z,46.37
2023-02-18T21:24:50.554Z,50.73
2023-02-18T21:27:35.813Z,53.17
2023-02-18T21:30:21.145Z,56.20
2023-02-18T21:33:06.818Z,56.20
2023-02-18T21:35:53.704Z,51.97
2023-02-18T21:38:38.897Z,51.03
2023-02-18T21:41:25.438Z,55.10
2023-02-18T21:44:10.695Z,52.93
2023-02-18T21:46:55.901Z,56.27
2023-02-18T21:49:41.318Z,49.47
2023-02-18T21:52:29.736Z,53.50
2023-02-18T21:55:15.098Z,52.87
2023-02-18T21:58:00.443Z,57.07
2023-02-18T22:00:45.410Z,50.47
2023-02-18T22:03:32.328Z,50.13
2023-02-18T22:06:17.606Z,51.83
2023-02-18T22:09:04.598Z,49.33
2023-02-18T22:11:50.117Z,52.10
2023-02-18T22:14:35.523Z,47.93
2023-02-18T22:17:20.817Z,54.27
2023-02-18T22:20:06.953Z,55.27
2023-02-18T22:22:53.597Z,52.53
2023-02-18T22:25:38.830Z,53.10
2023-02-18T22:28:23.906Z,51.33
2023-02-18T22:31:11.916Z,49.70
2023-02-18T22:33:58.831Z,47.90
2023-02-18T22:36:44.230Z,48.07
2023-02-18T22:39:29.773Z,47.23
2023-02-18T22:42:14.938Z,49.07
2023-02-18T22:45:00.282Z,45.63
2023-02-18T22:47:45.736Z,48.23
2023-02-18T22:50:31.044Z,50.93
2023-02-18T22:53:15.938Z,55.03
2023-02-18T22:56:03.358Z,51.30
2023-02-18T22:58:50.083Z,52.30
2023-02-18T23:01:37.702Z,58.93
2023-02-18T23:04:22.914Z,54.53
2023-02-18T23:07:08.246Z,57.33
2023-02-18T23:09:53.769Z,52.77
2023-02-18T23:12:39.061Z,60.80
2023-02-18T23:15:23.950Z,49.67
2023-02-18T23:18:09.376Z,56.23
2023-02-18T23:21:12.971Z,55.63
2023-02-18T23:23:58.039Z,54.70
2023-02-18T23:26:43.472Z,57.07
2023-02-18T23:29:28.850Z,53.90
2023-02-18T23:32:14.286Z,67.37
2023-02-18T23:34:59.451Z,64.20
2023-02-18T23:37:44.532Z,53.97
2023-02-18T23:40:30.115Z,58.57
2023-02-18T23:43:15.415Z,42.50
2023-02-18T23:46:00.718Z,46.50
2023-02-18T23:48:47.445Z,46.27
2023-02-18T23:51:32.696Z,35.30
2023-02-18T23:54:18.013Z,32.77
2023-02-18T23:57:02.974Z,24.37
2023-02-18T23:59:47.881Z,21.93
